Portada
METAR-TAF:

METAR-TAF

Aeroports :

Aeroport de la Ciutat de Londres

Londres, Anglaterra

latitud: 51-30N, longitud: 000-03E, altitud: 5 m

Observació

L'informe es va fer fa 44 minuts, a les 16:50 UTC
Vent 11 kt del Oest/Sud-Oest, variant entre Sud/Sud-Oest i Oest
Temperatura 6°C
Humitat 70%
Pressió 998 hPa
Visibilitat 10 km o més
Cel ennuvolat a una alçada de 2900 ft

METAR: EGLC 281650Z AUTO 25011KT 210V280 9999 BKN029 06/01 Q0998

Hora: 17:34 (17:34 UTC)

Pronòstic

L'informe es va fer fa 38 minuts, a les 16:56 UTC
Pronòstic vàlid del 28 a les 18 UTC al 28 a les 21 UTC
Vent 12 kt del Oest
Visibilitat 10 km o més
Núvols disperses a una alçada de 3000 ft

TAF: EGLC 281656Z 2818/2821 26012KT 9999 SCT030

Observacions i pronòstics meteorològics de més de 4000 aeroports (METAR i TAF).

Les estacions disponibles són els punts grocs i vermells al mapa.

Posi el ratolí al punt desitjat per veure el nom de l'estació.

Feu clic per veure les observacions i els pronòstics meteorològics.

Per canviar el mapa: feu clic els botons verds amb una creu de color negre per apropar; al botó verd amb un guió per allunyar la imatge; o en les fletxes verdes per a mapes adjacents.


METAR-TAF: